sensor_id;sensor_type;location;lat;lon;timestamp;P1;durP1;ratioP1;P2;durP2;ratioP2
85381;SDS011;75790;40.308;44.272;2024-03-02T00:00:21;10.98;;;4.05;;
85381;SDS011;75790;40.308;44.272;2024-03-02T00:02:47;7.30;;;3.53;;
85381;SDS011;75790;40.308;44.272;2024-03-02T00:05:15;8.70;;;3.22;;
85381;SDS011;75790;40.308;44.272;2024-03-02T00:07:42;9.95;;;4.40;;
85381;SDS011;75790;40.308;44.272;2024-03-02T00:10:10;8.50;;;4.05;;
85381;SDS011;75790;40.308;44.272;2024-03-02T00:12:39;9.30;;;4.20;;
85381;SDS011;75790;40.308;44.272;2024-03-02T00:15:06;11.10;;;4.88;;
85381;SDS011;75790;40.308;44.272;2024-03-02T00:17:57;15.07;;;5.60;;
85381;SDS011;75790;40.308;44.272;2024-03-02T00:20:24;15.23;;;5.75;;
85381;SDS011;75790;40.308;44.272;2024-03-02T00:22:58;14.68;;;5.75;;
85381;SDS011;75790;40.308;44.272;2024-03-02T00:25:48;11.73;;;5.20;;
85381;SDS011;75790;40.308;44.272;2024-03-02T00:30:51;13.40;;;4.82;;
85381;SDS011;75790;40.308;44.272;2024-03-02T00:33:28;9.25;;;3.78;;
85381;SDS011;75790;40.308;44.272;2024-03-02T00:36:06;10.18;;;3.53;;
85381;SDS011;75790;40.308;44.272;2024-03-02T00:38:33;10.60;;;4.00;;
85381;SDS011;75790;40.308;44.272;2024-03-02T00:41:08;10.77;;;3.88;;
85381;SDS011;75790;40.308;44.272;2024-03-02T00:46:20;10.63;;;3.92;;
85381;SDS011;75790;40.308;44.272;2024-03-02T00:48:53;11.43;;;4.35;;
85381;SDS011;75790;40.308;44.272;2024-03-02T00:51:21;13.13;;;5.57;;
85381;SDS011;75790;40.308;44.272;2024-03-02T00:53:51;11.27;;;5.65;;
85381;SDS011;75790;40.308;44.272;2024-03-02T00:56:18;12.07;;;5.40;;
85381;SDS011;75790;40.308;44.272;2024-03-02T00:58:44;15.73;;;6.10;;
85381;SDS011;75790;40.308;44.272;2024-03-02T01:01:10;14.10;;;5.47;;
85381;SDS011;75790;40.308;44.272;2024-03-02T01:03:36;13.27;;;5.32;;
85381;SDS011;75790;40.308;44.272;2024-03-02T01:06:02;14.68;;;5.60;;
85381;SDS011;75790;40.308;44.272;2024-03-02T01:08:28;11.43;;;5.03;;
85381;SDS011;75790;40.308;44.272;2024-03-02T01:10:54;9.80;;;5.10;;
85381;SDS011;75790;40.308;44.272;2024-03-02T01:13:21;12.55;;;5.53;;
85381;SDS011;75790;40.308;44.272;2024-03-02T01:15:48;14.63;;;5.30;;
85381;SDS011;75790;40.308;44.272;2024-03-02T01:18:14;11.88;;;4.78;;
85381;SDS011;75790;40.308;44.272;2024-03-02T01:20:40;15.10;;;5.05;;
85381;SDS011;75790;40.308;44.272;2024-03-02T01:23:06;13.18;;;4.57;;
85381;SDS011;75790;40.308;44.272;2024-03-02T01:25:32;13.38;;;4.85;;
85381;SDS011;75790;40.308;44.272;2024-03-02T01:27:57;14.85;;;4.60;;
85381;SDS011;75790;40.308;44.272;2024-03-02T01:30:23;12.32;;;4.95;;
85381;SDS011;75790;40.308;44.272;2024-03-02T01:32:49;15.68;;;4.95;;
85381;SDS011;75790;40.308;44.272;2024-03-02T01:35:15;10.93;;;4.50;;
85381;SDS011;75790;40.308;44.272;2024-03-02T01:37:41;12.13;;;4.72;;
85381;SDS011;75790;40.308;44.272;2024-03-02T01:40:07;12.20;;;4.43;;
85381;SDS011;75790;40.308;44.272;2024-03-02T01:42:39;12.70;;;5.20;;
85381;SDS011;75790;40.308;44.272;2024-03-02T01:45:08;11.60;;;4.93;;
85381;SDS011;75790;40.308;44.272;2024-03-02T01:47:34;11.00;;;4.97;;
85381;SDS011;75790;40.308;44.272;2024-03-02T01:50:00;13.52;;;5.00;;
85381;SDS011;75790;40.308;44.272;2024-03-02T01:52:27;10.77;;;4.68;;
85381;SDS011;75790;40.308;44.272;2024-03-02T01:54:52;10.80;;;4.10;;
85381;SDS011;75790;40.308;44.272;2024-03-02T01:57:19;11.20;;;4.70;;
85381;SDS011;75790;40.308;44.272;2024-03-02T01:59:45;10.80;;;4.22;;
85381;SDS011;75790;40.308;44.272;2024-03-02T02:02:13;8.18;;;3.80;;
85381;SDS011;75790;40.308;44.272;2024-03-02T02:04:39;8.15;;;2.95;;
85381;SDS011;75790;40.308;44.272;2024-03-02T02:07:05;11.13;;;3.95;;
85381;SDS011;75790;40.308;44.272;2024-03-02T02:09:31;11.05;;;4.85;;
85381;SDS011;75790;40.308;44.272;2024-03-02T02:11:57;13.98;;;5.43;;
85381;SDS011;75790;40.308;44.272;2024-03-02T02:14:23;14.25;;;5.30;;
85381;SDS011;75790;40.308;44.272;2024-03-02T02:16:49;14.88;;;4.97;;
85381;SDS011;75790;40.308;44.272;2024-03-02T02:19:15;13.77;;;5.22;;
85381;SDS011;75790;40.308;44.272;2024-03-02T02:21:43;11.43;;;5.30;;
85381;SDS011;75790;40.308;44.272;2024-03-02T02:24:10;13.57;;;5.57;;
85381;SDS011;75790;40.308;44.272;2024-03-02T02:29:03;14.45;;;5.43;;
85381;SDS011;75790;40.308;44.272;2024-03-02T02:31:38;17.33;;;5.82;;
85381;SDS011;75790;40.308;44.272;2024-03-02T02:34:05;13.75;;;4.63;;
85381;SDS011;75790;40.308;44.272;2024-03-02T02:36:31;12.93;;;5.43;;
85381;SDS011;75790;40.308;44.272;2024-03-02T02:38:58;9.07;;;4.55;;
85381;SDS011;75790;40.308;44.272;2024-03-02T02:41:25;14.68;;;5.40;;
85381;SDS011;75790;40.308;44.272;2024-03-02T02:43:51;11.05;;;4.45;;
85381;SDS011;75790;40.308;44.272;2024-03-02T02:46:17;9.63;;;4.40;;
85381;SDS011;75790;40.308;44.272;2024-03-02T02:48:43;12.20;;;4.70;;
85381;SDS011;75790;40.308;44.272;2024-03-02T02:51:08;12.52;;;5.07;;
85381;SDS011;75790;40.308;44.272;2024-03-02T02:53:34;8.82;;;4.10;;
85381;SDS011;75790;40.308;44.272;2024-03-02T02:56:00;7.38;;;3.90;;
85381;SDS011;75790;40.308;44.272;2024-03-02T02:58:26;11.18;;;4.07;;
85381;SDS011;75790;40.308;44.272;2024-03-02T03:00:52;10.40;;;3.90;;
85381;SDS011;75790;40.308;44.272;2024-03-02T03:03:19;8.63;;;3.80;;
85381;SDS011;75790;40.308;44.272;2024-03-02T03:05:45;7.95;;;3.83;;
85381;SDS011;75790;40.308;44.272;2024-03-02T03:08:11;8.02;;;3.40;;
85381;SDS011;75790;40.308;44.272;2024-03-02T03:10:37;9.70;;;3.42;;
85381;SDS011;75790;40.308;44.272;2024-03-02T03:13:03;10.68;;;3.85;;
85381;SDS011;75790;40.308;44.272;2024-03-02T03:15:29;7.90;;;3.35;;
85381;SDS011;75790;40.308;44.272;2024-03-02T03:17:54;8.15;;;3.38;;
85381;SDS011;75790;40.308;44.272;2024-03-02T03:20:20;5.85;;;2.90;;
85381;SDS011;75790;40.308;44.272;2024-03-02T03:22:47;7.75;;;3.50;;
85381;SDS011;75790;40.308;44.272;2024-03-02T03:25:12;9.73;;;3.72;;
85381;SDS011;75790;40.308;44.272;2024-03-02T03:27:38;10.10;;;4.22;;
85381;SDS011;75790;40.308;44.272;2024-03-02T03:30:04;8.55;;;3.92;;
85381;SDS011;75790;40.308;44.272;2024-03-02T03:32:31;9.32;;;4.20;;
85381;SDS011;75790;40.308;44.272;2024-03-02T03:34:56;12.35;;;4.00;;
85381;SDS011;75790;40.308;44.272;2024-03-02T03:37:22;10.48;;;4.90;;
85381;SDS011;75790;40.308;44.272;2024-03-02T03:39:49;12.93;;;5.00;;
85381;SDS011;75790;40.308;44.272;2024-03-02T03:42:14;12.50;;;4.88;;
85381;SDS011;75790;40.308;44.272;2024-03-02T03:44:41;13.57;;;5.22;;
85381;SDS011;75790;40.308;44.272;2024-03-02T03:47:06;17.05;;;6.18;;
85381;SDS011;75790;40.308;44.272;2024-03-02T03:49:32;14.05;;;6.20;;
85381;SDS011;75790;40.308;44.272;2024-03-02T03:51:58;13.88;;;6.32;;
85381;SDS011;75790;40.308;44.272;2024-03-02T03:54:24;15.50;;;6.40;;
85381;SDS011;75790;40.308;44.272;2024-03-02T03:56:50;16.15;;;6.97;;
85381;SDS011;75790;40.308;44.272;2024-03-02T03:59:15;16.20;;;6.05;;
85381;SDS011;75790;40.308;44.272;2024-03-02T04:01:41;14.25;;;6.05;;
85381;SDS011;75790;40.308;44.272;2024-03-02T04:04:07;15.82;;;5.95;;
85381;SDS011;75790;40.308;44.272;2024-03-02T04:06:33;17.45;;;5.72;;
85381;SDS011;75790;40.308;44.272;2024-03-02T04:08:59;12.35;;;5.20;;
85381;SDS011;75790;40.308;44.272;2024-03-02T04:11:24;18.30;;;5.78;;
85381;SDS011;75790;40.308;44.272;2024-03-02T04:13:50;16.60;;;5.65;;
85381;SDS011;75790;40.308;44.272;2024-03-02T04:16:16;17.15;;;5.63;;
85381;SDS011;75790;40.308;44.272;2024-03-02T04:18:42;17.48;;;6.53;;
85381;SDS011;75790;40.308;44.272;2024-03-02T04:21:08;17.42;;;6.70;;
85381;SDS011;75790;40.308;44.272;2024-03-02T04:23:33;18.80;;;7.20;;
85381;SDS011;75790;40.308;44.272;2024-03-02T04:25:59;15.55;;;6.10;;
85381;SDS011;75790;40.308;44.272;2024-03-02T04:28:25;16.13;;;6.22;;
85381;SDS011;75790;40.308;44.272;2024-03-02T04:30:51;18.73;;;6.85;;
85381;SDS011;75790;40.308;44.272;2024-03-02T04:33:16;15.85;;;6.47;;
85381;SDS011;75790;40.308;44.272;2024-03-02T04:35:42;17.35;;;6.32;;
85381;SDS011;75790;40.308;44.272;2024-03-02T04:38:08;17.17;;;6.63;;
85381;SDS011;75790;40.308;44.272;2024-03-02T04:40:34;15.25;;;6.00;;
85381;SDS011;75790;40.308;44.272;2024-03-02T04:43:00;12.82;;;5.63;;
85381;SDS011;75790;40.308;44.272;2024-03-02T04:45:25;16.60;;;5.45;;
85381;SDS011;75790;40.308;44.272;2024-03-02T04:47:51;13.93;;;4.97;;
85381;SDS011;75790;40.308;44.272;2024-03-02T04:50:17;13.43;;;5.63;;
85381;SDS011;75790;40.308;44.272;2024-03-02T04:52:44;17.70;;;6.88;;
85381;SDS011;75790;40.308;44.272;2024-03-02T04:55:09;20.52;;;9.27;;
85381;SDS011;75790;40.308;44.272;2024-03-02T04:57:44;17.80;;;7.00;;
85381;SDS011;75790;40.308;44.272;2024-03-02T05:00:11;19.45;;;7.65;;
85381;SDS011;75790;40.308;44.272;2024-03-02T05:02:37;16.77;;;6.70;;
85381;SDS011;75790;40.308;44.272;2024-03-02T05:05:04;18.08;;;7.35;;
85381;SDS011;75790;40.308;44.272;2024-03-02T05:07:30;17.00;;;6.50;;
85381;SDS011;75790;40.308;44.272;2024-03-02T05:09:55;16.55;;;6.82;;
85381;SDS011;75790;40.308;44.272;2024-03-02T05:12:21;21.90;;;8.10;;
85381;SDS011;75790;40.308;44.272;2024-03-02T05:15:05;18.00;;;7.55;;
85381;SDS011;75790;40.308;44.272;2024-03-02T05:17:32;17.15;;;7.93;;
85381;SDS011;75790;40.308;44.272;2024-03-02T05:19:58;19.00;;;7.50;;
85381;SDS011;75790;40.308;44.272;2024-03-02T05:22:24;15.40;;;6.72;;
85381;SDS011;75790;40.308;44.272;2024-03-02T05:24:50;17.65;;;7.78;;
85381;SDS011;75790;40.308;44.272;2024-03-02T05:27:16;15.35;;;6.95;;
85381;SDS011;75790;40.308;44.272;2024-03-02T05:29:42;18.63;;;7.97;;
85381;SDS011;75790;40.308;44.272;2024-03-02T05:32:08;19.33;;;8.00;;
85381;SDS011;75790;40.308;44.272;2024-03-02T05:34:33;18.65;;;7.80;;
85381;SDS011;75790;40.308;44.272;2024-03-02T05:37:00;21.25;;;8.65;;
85381;SDS011;75790;40.308;44.272;2024-03-02T05:39:27;15.35;;;7.30;;
85381;SDS011;75790;40.308;44.272;2024-03-02T05:41:52;21.13;;;8.93;;
85381;SDS011;75790;40.308;44.272;2024-03-02T05:44:18;19.90;;;7.88;;
85381;SDS011;75790;40.308;44.272;2024-03-02T05:46:45;15.20;;;7.60;;
85381;SDS011;75790;40.308;44.272;2024-03-02T05:49:11;19.05;;;8.07;;
85381;SDS011;75790;40.308;44.272;2024-03-02T05:51:37;20.42;;;8.65;;
85381;SDS011;75790;40.308;44.272;2024-03-02T05:54:03;18.05;;;9.07;;
85381;SDS011;75790;40.308;44.272;2024-03-02T05:56:29;24.33;;;10.18;;
85381;SDS011;75790;40.308;44.272;2024-03-02T05:58:54;21.65;;;9.90;;
85381;SDS011;75790;40.308;44.272;2024-03-02T06:01:44;23.40;;;10.77;;
85381;SDS011;75790;40.308;44.272;2024-03-02T06:04:12;29.30;;;10.80;;
85381;SDS011;75790;40.308;44.272;2024-03-02T06:06:41;32.17;;;12.95;;
85381;SDS011;75790;40.308;44.272;2024-03-02T06:09:07;37.13;;;13.95;;
85381;SDS011;75790;40.308;44.272;2024-03-02T06:11:33;29.30;;;13.15;;
85381;SDS011;75790;40.308;44.272;2024-03-02T06:13:59;44.05;;;14.77;;
85381;SDS011;75790;40.308;44.272;2024-03-02T06:16:25;34.70;;;13.63;;
85381;SDS011;75790;40.308;44.272;2024-03-02T06:18:51;29.77;;;12.60;;
85381;SDS011;75790;40.308;44.272;2024-03-02T06:21:19;30.95;;;13.55;;
85381;SDS011;75790;40.308;44.272;2024-03-02T06:23:45;33.33;;;14.15;;
85381;SDS011;75790;40.308;44.272;2024-03-02T06:26:11;33.17;;;14.07;;
85381;SDS011;75790;40.308;44.272;2024-03-02T06:28:37;35.85;;;14.07;;
85381;SDS011;75790;40.308;44.272;2024-03-02T06:31:03;29.48;;;12.90;;
85381;SDS011;75790;40.308;44.272;2024-03-02T06:33:29;26.98;;;11.43;;
85381;SDS011;75790;40.308;44.272;2024-03-02T06:35:55;36.70;;;14.95;;
85381;SDS011;75790;40.308;44.272;2024-03-02T06:38:21;37.90;;;14.60;;
85381;SDS011;75790;40.308;44.272;2024-03-02T06:40:46;37.78;;;14.80;;
85381;SDS011;75790;40.308;44.272;2024-03-02T06:43:12;34.85;;;14.35;;
85381;SDS011;75790;40.308;44.272;2024-03-02T06:45:38;36.90;;;15.35;;
85381;SDS011;75790;40.308;44.272;2024-03-02T06:48:04;42.40;;;16.42;;
85381;SDS011;75790;40.308;44.272;2024-03-02T06:50:30;42.25;;;17.75;;
85381;SDS011;75790;40.308;44.272;2024-03-02T06:52:56;37.25;;;15.27;;
85381;SDS011;75790;40.308;44.272;2024-03-02T06:55:22;39.45;;;16.80;;
85381;SDS011;75790;40.308;44.272;2024-03-02T06:57:49;36.40;;;16.50;;
85381;SDS011;75790;40.308;44.272;2024-03-02T07:00:16;38.92;;;17.17;;
85381;SDS011;75790;40.308;44.272;2024-03-02T07:02:43;46.55;;;16.08;;
85381;SDS011;75790;40.308;44.272;2024-03-02T07:05:10;48.65;;;17.95;;
85381;SDS011;75790;40.308;44.272;2024-03-02T07:07:36;39.63;;;17.92;;
85381;SDS011;75790;40.308;44.272;2024-03-02T07:10:05;46.00;;;17.65;;
85381;SDS011;75790;40.308;44.272;2024-03-02T07:12:32;41.90;;;18.05;;
85381;SDS011;75790;40.308;44.272;2024-03-02T07:14:58;42.78;;;17.55;;
85381;SDS011;75790;40.308;44.272;2024-03-02T07:17:27;41.22;;;17.67;;
85381;SDS011;75790;40.308;44.272;2024-03-02T07:19:53;39.78;;;15.50;;
85381;SDS011;75790;40.308;44.272;2024-03-02T07:22:19;39.70;;;17.35;;
85381;SDS011;75790;40.308;44.272;2024-03-02T07:24:45;38.67;;;16.58;;
85381;SDS011;75790;40.308;44.272;2024-03-02T07:27:13;36.55;;;17.42;;
85381;SDS011;75790;40.308;44.272;2024-03-02T07:29:39;36.38;;;16.75;;
85381;SDS011;75790;40.308;44.272;2024-03-02T07:32:05;39.30;;;16.77;;
85381;SDS011;75790;40.308;44.272;2024-03-02T07:34:32;34.33;;;15.35;;
85381;SDS011;75790;40.308;44.272;2024-03-02T07:36:57;36.47;;;15.52;;
85381;SDS011;75790;40.308;44.272;2024-03-02T07:39:23;38.17;;;16.42;;
85381;SDS011;75790;40.308;44.272;2024-03-02T07:41:49;40.33;;;16.48;;
85381;SDS011;75790;40.308;44.272;2024-03-02T07:44:15;38.50;;;17.13;;
85381;SDS011;75790;40.308;44.272;2024-03-02T07:46:42;33.38;;;15.50;;
85381;SDS011;75790;40.308;44.272;2024-03-02T07:49:08;38.08;;;16.75;;
85381;SDS011;75790;40.308;44.272;2024-03-02T07:51:34;38.55;;;17.33;;
85381;SDS011;75790;40.308;44.272;2024-03-02T07:54:01;39.35;;;16.38;;
85381;SDS011;75790;40.308;44.272;2024-03-02T07:56:27;36.88;;;16.90;;
85381;SDS011;75790;40.308;44.272;2024-03-02T07:58:53;40.47;;;16.45;;
85381;SDS011;75790;40.308;44.272;2024-03-02T08:01:20;34.75;;;15.65;;
85381;SDS011;75790;40.308;44.272;2024-03-02T08:03:45;31.25;;;15.50;;
85381;SDS011;75790;40.308;44.272;2024-03-02T08:06:19;32.35;;;16.55;;
85381;SDS011;75790;40.308;44.272;2024-03-02T08:08:46;29.60;;;13.82;;
85381;SDS011;75790;40.308;44.272;2024-03-02T08:11:12;31.60;;;14.70;;
85381;SDS011;75790;40.308;44.272;2024-03-02T09:01:12;32.90;;;14.93;;
85381;SDS011;75790;40.308;44.272;2024-03-02T09:03:38;26.80;;;12.23;;
85381;SDS011;75790;40.308;44.272;2024-03-02T09:06:03;23.90;;;12.23;;
85381;SDS011;75790;40.308;44.272;2024-03-02T09:08:29;27.02;;;11.90;;
85381;SDS011;75790;40.308;44.272;2024-03-02T09:10:56;25.70;;;11.82;;
85381;SDS011;75790;40.308;44.272;2024-03-02T09:13:22;27.15;;;12.15;;
85381;SDS011;75790;40.308;44.272;2024-03-02T09:15:47;27.73;;;11.75;;
85381;SDS011;75790;40.308;44.272;2024-03-02T09:18:13;29.88;;;11.65;;
85381;SDS011;75790;40.308;44.272;2024-03-02T09:20:39;27.00;;;10.52;;
85381;SDS011;75790;40.308;44.272;2024-03-02T09:23:05;26.52;;;11.00;;
85381;SDS011;75790;40.308;44.272;2024-03-02T09:25:31;25.17;;;11.48;;
85381;SDS011;75790;40.308;44.272;2024-03-02T09:27:57;23.25;;;10.98;;
85381;SDS011;75790;40.308;44.272;2024-03-02T09:30:22;26.77;;;11.95;;
85381;SDS011;75790;40.308;44.272;2024-03-02T09:32:48;31.00;;;11.45;;
85381;SDS011;75790;40.308;44.272;2024-03-02T09:35:14;25.38;;;10.68;;
85381;SDS011;75790;40.308;44.272;2024-03-02T09:37:40;25.88;;;10.43;;
85381;SDS011;75790;40.308;44.272;2024-03-02T09:40:06;29.00;;;11.85;;
85381;SDS011;75790;40.308;44.272;2024-03-02T09:42:32;32.88;;;11.68;;
85381;SDS011;75790;40.308;44.272;2024-03-02T09:44:58;29.38;;;12.48;;
85381;SDS011;75790;40.308;44.272;2024-03-02T09:47:24;23.98;;;10.77;;
85381;SDS011;75790;40.308;44.272;2024-03-02T09:49:50;35.92;;;11.75;;
85381;SDS011;75790;40.308;44.272;2024-03-02T09:52:15;32.78;;;12.60;;
85381;SDS011;75790;40.308;44.272;2024-03-02T09:54:41;35.03;;;13.63;;
85381;SDS011;75790;40.308;44.272;2024-03-02T09:57:07;30.85;;;13.50;;
85381;SDS011;75790;40.308;44.272;2024-03-02T09:59:33;30.95;;;12.80;;
85381;SDS011;75790;40.308;44.272;2024-03-02T10:02:01;27.98;;;12.13;;
85381;SDS011;75790;40.308;44.272;2024-03-02T10:04:28;34.83;;;12.52;;
85381;SDS011;75790;40.308;44.272;2024-03-02T10:07:15;28.80;;;13.38;;
85381;SDS011;75790;40.308;44.272;2024-03-02T10:09:42;33.47;;;12.90;;
85381;SDS011;75790;40.308;44.272;2024-03-02T10:12:09;33.35;;;13.63;;
85381;SDS011;75790;40.308;44.272;2024-03-02T10:17:03;30.30;;;12.73;;
85381;SDS011;75790;40.308;44.272;2024-03-02T10:19:36;28.63;;;12.38;;
85381;SDS011;75790;40.308;44.272;2024-03-02T10:22:02;28.67;;;13.13;;
85381;SDS011;75790;40.308;44.272;2024-03-02T10:24:38;35.13;;;14.65;;
85381;SDS011;75790;40.308;44.272;2024-03-02T10:27:14;34.47;;;14.73;;
85381;SDS011;75790;40.308;44.272;2024-03-02T10:29:41;31.60;;;14.02;;
85381;SDS011;75790;40.308;44.272;2024-03-02T10:32:10;26.33;;;11.63;;
85381;SDS011;75790;40.308;44.272;2024-03-02T10:34:36;28.30;;;10.15;;
85381;SDS011;75790;40.308;44.272;2024-03-02T10:37:05;27.67;;;11.88;;
85381;SDS011;75790;40.308;44.272;2024-03-02T10:39:32;26.48;;;10.10;;
85381;SDS011;75790;40.308;44.272;2024-03-02T10:42:00;23.25;;;10.73;;
85381;SDS011;75790;40.308;44.272;2024-03-02T10:44:28;19.63;;;9.55;;
85381;SDS011;75790;40.308;44.272;2024-03-02T10:46:55;20.92;;;9.43;;
85381;SDS011;75790;40.308;44.272;2024-03-02T10:49:22;31.35;;;11.30;;
85381;SDS011;75790;40.308;44.272;2024-03-02T10:54:15;16.02;;;7.57;;
85381;SDS011;75790;40.308;44.272;2024-03-02T10:56:41;18.92;;;8.05;;
85381;SDS011;75790;40.308;44.272;2024-03-02T11:02:01;14.90;;;6.80;;
85381;SDS011;75790;40.308;44.272;2024-03-02T11:04:28;13.90;;;6.32;;
85381;SDS011;75790;40.308;44.272;2024-03-02T11:07:04;11.70;;;6.05;;
85381;SDS011;75790;40.308;44.272;2024-03-02T11:09:35;13.10;;;6.78;;
85381;SDS011;75790;40.308;44.272;2024-03-02T11:14:48;14.23;;;6.80;;
85381;SDS011;75790;40.308;44.272;2024-03-02T11:17:17;16.25;;;7.43;;
85381;SDS011;75790;40.308;44.272;2024-03-02T11:19:43;20.52;;;8.57;;
85381;SDS011;75790;40.308;44.272;2024-03-02T11:22:10;17.02;;;7.63;;
85381;SDS011;75790;40.308;44.272;2024-03-02T11:24:36;19.15;;;9.02;;
85381;SDS011;75790;40.308;44.272;2024-03-02T11:27:03;19.33;;;9.73;;
85381;SDS011;75790;40.308;44.272;2024-03-02T11:34:50;22.65;;;11.30;;
85381;SDS011;75790;40.308;44.272;2024-03-02T11:37:20;25.27;;;11.38;;
85381;SDS011;75790;40.308;44.272;2024-03-02T11:39:46;23.50;;;11.38;;
85381;SDS011;75790;40.308;44.272;2024-03-02T11:42:14;27.08;;;11.98;;
85381;SDS011;75790;40.308;44.272;2024-03-02T11:44:47;29.13;;;13.50;;
85381;SDS011;75790;40.308;44.272;2024-03-02T11:47:15;28.52;;;12.93;;
85381;SDS011;75790;40.308;44.272;2024-03-02T11:49:45;32.08;;;14.73;;
85381;SDS011;75790;40.308;44.272;2024-03-02T11:52:15;34.03;;;15.20;;
85381;SDS011;75790;40.308;44.272;2024-03-02T11:54:42;33.63;;;14.02;;
85381;SDS011;75790;40.308;44.272;2024-03-02T11:57:16;29.88;;;14.32;;
85381;SDS011;75790;40.308;44.272;2024-03-02T11:59:47;30.60;;;13.82;;
85381;SDS011;75790;40.308;44.272;2024-03-02T12:02:18;26.33;;;11.95;;
85381;SDS011;75790;40.308;44.272;2024-03-02T12:04:45;29.55;;;14.00;;
85381;SDS011;75790;40.308;44.272;2024-03-02T12:07:17;28.77;;;14.00;;
85381;SDS011;75790;40.308;44.272;2024-03-02T12:09:46;26.50;;;13.57;;
85381;SDS011;75790;40.308;44.272;2024-03-02T12:12:11;28.50;;;13.48;;
85381;SDS011;75790;40.308;44.272;2024-03-02T12:14:49;26.60;;;13.00;;
85381;SDS011;75790;40.308;44.272;2024-03-02T12:17:16;29.08;;;12.60;;
85381;SDS011;75790;40.308;44.272;2024-03-02T12:19:41;29.02;;;13.23;;
85381;SDS011;75790;40.308;44.272;2024-03-02T12:22:07;28.60;;;12.93;;
85381;SDS011;75790;40.308;44.272;2024-03-02T12:24:33;30.27;;;14.07;;
85381;SDS011;75790;40.308;44.272;2024-03-02T12:26:59;25.42;;;12.63;;
85381;SDS011;75790;40.308;44.272;2024-03-02T12:29:25;27.00;;;13.00;;
85381;SDS011;75790;40.308;44.272;2024-03-02T12:31:52;27.77;;;13.05;;
85381;SDS011;75790;40.308;44.272;2024-03-02T12:34:18;26.77;;;12.98;;
85381;SDS011;75790;40.308;44.272;2024-03-02T12:36:47;26.30;;;12.93;;
85381;SDS011;75790;40.308;44.272;2024-03-02T12:39:18;25.27;;;12.68;;
85381;SDS011;75790;40.308;44.272;2024-03-02T12:41:50;30.23;;;13.57;;
85381;SDS011;75790;40.308;44.272;2024-03-02T12:44:16;25.23;;;11.90;;
85381;SDS011;75790;40.308;44.272;2024-03-02T12:46:43;26.15;;;13.60;;
85381;SDS011;75790;40.308;44.272;2024-03-02T12:49:13;23.55;;;11.55;;
85381;SDS011;75790;40.308;44.272;2024-03-02T12:51:43;25.30;;;12.55;;
85381;SDS011;75790;40.308;44.272;2024-03-02T12:54:12;27.77;;;13.20;;
85381;SDS011;75790;40.308;44.272;2024-03-02T12:56:37;27.92;;;13.23;;
85381;SDS011;75790;40.308;44.272;2024-03-02T12:59:04;23.45;;;11.63;;
85381;SDS011;75790;40.308;44.272;2024-03-02T13:01:30;32.22;;;13.30;;
85381;SDS011;75790;40.308;44.272;2024-03-02T13:03:57;24.77;;;11.88;;
85381;SDS011;75790;40.308;44.272;2024-03-02T13:06:23;26.90;;;12.77;;
85381;SDS011;75790;40.308;44.272;2024-03-02T13:08:52;28.25;;;12.98;;
85381;SDS011;75790;40.308;44.272;2024-03-02T13:11:18;28.30;;;12.75;;
85381;SDS011;75790;40.308;44.272;2024-03-02T13:13:44;27.10;;;13.63;;
85381;SDS011;75790;40.308;44.272;2024-03-02T13:16:11;28.38;;;11.90;;
85381;SDS011;75790;40.308;44.272;2024-03-02T13:18:38;29.70;;;12.60;;
85381;SDS011;75790;40.308;44.272;2024-03-02T13:21:05;27.00;;;12.50;;
85381;SDS011;75790;40.308;44.272;2024-03-02T13:23:32;32.38;;;13.73;;
85381;SDS011;75790;40.308;44.272;2024-03-02T13:25:58;27.60;;;12.95;;
85381;SDS011;75790;40.308;44.272;2024-03-02T13:28:24;26.73;;;12.35;;
85381;SDS011;75790;40.308;44.272;2024-03-02T13:30:50;29.40;;;12.75;;
85381;SDS011;75790;40.308;44.272;2024-03-02T13:33:16;24.88;;;12.48;;
85381;SDS011;75790;40.308;44.272;2024-03-02T13:35:50;27.13;;;13.73;;
85381;SDS011;75790;40.308;44.272;2024-03-02T13:38:20;29.00;;;12.82;;
85381;SDS011;75790;40.308;44.272;2024-03-02T13:40:46;32.95;;;13.40;;
85381;SDS011;75790;40.308;44.272;2024-03-02T13:43:16;26.67;;;13.43;;
85381;SDS011;75790;40.308;44.272;2024-03-02T13:45:42;26.10;;;12.82;;
85381;SDS011;75790;40.308;44.272;2024-03-02T13:48:08;30.17;;;14.52;;
85381;SDS011;75790;40.308;44.272;2024-03-02T13:50:34;29.48;;;13.98;;
85381;SDS011;75790;40.308;44.272;2024-03-02T13:53:00;33.95;;;14.70;;
85381;SDS011;75790;40.308;44.272;2024-03-02T13:55:26;29.33;;;13.60;;
85381;SDS011;75790;40.308;44.272;2024-03-02T13:57:52;31.13;;;13.52;;
85381;SDS011;75790;40.308;44.272;2024-03-02T14:00:17;26.33;;;13.65;;
85381;SDS011;75790;40.308;44.272;2024-03-02T14:02:45;33.20;;;15.25;;
85381;SDS011;75790;40.308;44.272;2024-03-02T14:05:11;32.13;;;15.35;;
85381;SDS011;75790;40.308;44.272;2024-03-02T14:07:39;30.75;;;16.08;;
85381;SDS011;75790;40.308;44.272;2024-03-02T14:10:05;30.52;;;14.57;;
85381;SDS011;75790;40.308;44.272;2024-03-02T14:12:31;33.80;;;15.40;;
85381;SDS011;75790;40.308;44.272;2024-03-02T14:14:56;34.70;;;15.70;;
85381;SDS011;75790;40.308;44.272;2024-03-02T14:17:27;27.85;;;13.88;;
85381;SDS011;75790;40.308;44.272;2024-03-02T14:19:54;33.08;;;15.00;;
85381;SDS011;75790;40.308;44.272;2024-03-02T14:22:20;30.92;;;14.57;;
85381;SDS011;75790;40.308;44.272;2024-03-02T14:24:46;29.40;;;13.93;;
85381;SDS011;75790;40.308;44.272;2024-03-02T14:27:13;29.80;;;14.10;;
85381;SDS011;75790;40.308;44.272;2024-03-02T14:29:39;26.52;;;13.93;;
85381;SDS011;75790;40.308;44.272;2024-03-02T14:32:05;27.98;;;13.82;;
85381;SDS011;75790;40.308;44.272;2024-03-02T14:34:32;34.65;;;14.82;;
85381;SDS011;75790;40.308;44.272;2024-03-02T14:36:58;28.67;;;14.00;;
85381;SDS011;75790;40.308;44.272;2024-03-02T14:39:25;27.67;;;14.48;;
85381;SDS011;75790;40.308;44.272;2024-03-02T14:41:51;28.77;;;14.15;;
85381;SDS011;75790;40.308;44.272;2024-03-02T14:44:17;29.63;;;13.40;;
85381;SDS011;75790;40.308;44.272;2024-03-02T14:46:43;25.85;;;13.68;;
85381;SDS011;75790;40.308;44.272;2024-03-02T14:49:11;33.78;;;15.35;;
85381;SDS011;75790;40.308;44.272;2024-03-02T14:51:37;33.38;;;14.48;;
85381;SDS011;75790;40.308;44.272;2024-03-02T14:54:03;29.15;;;12.65;;
85381;SDS011;75790;40.308;44.272;2024-03-02T14:56:29;33.95;;;14.85;;
85381;SDS011;75790;40.308;44.272;2024-03-02T14:58:55;33.80;;;14.48;;
85381;SDS011;75790;40.308;44.272;2024-03-02T15:01:21;32.58;;;13.82;;
85381;SDS011;75790;40.308;44.272;2024-03-02T15:03:52;33.95;;;15.48;;
85381;SDS011;75790;40.308;44.272;2024-03-02T15:06:18;32.90;;;14.30;;
85381;SDS011;75790;40.308;44.272;2024-03-02T15:08:44;42.22;;;16.10;;
85381;SDS011;75790;40.308;44.272;2024-03-02T15:11:13;40.05;;;16.77;;
85381;SDS011;75790;40.308;44.272;2024-03-02T15:13:39;54.33;;;21.05;;
85381;SDS011;75790;40.308;44.272;2024-03-02T15:16:05;55.13;;;19.88;;
85381;SDS011;75790;40.308;44.272;2024-03-02T15:18:31;50.30;;;20.25;;
85381;SDS011;75790;40.308;44.272;2024-03-02T15:20:57;59.15;;;21.33;;
85381;SDS011;75790;40.308;44.272;2024-03-02T15:23:23;43.50;;;17.63;;
85381;SDS011;75790;40.308;44.272;2024-03-02T15:25:49;45.40;;;17.98;;